This is the latest recevied weather packets stored in our database for station/object SQ9SMC-13. If no packets are shown the sender has not sent any weather packets the latest 10 day(s).
| Time | Temp. | Humidity | Pressure | Rain* | Wind** | Luminosity | Snow |
|---|---|---|---|---|---|---|---|
| 1777902903 | 25.56° C | 31% | 1014.8 hPa | 0 mm | - | 400 W/m² | - |
| 1777902602 | 25.56° C | 32% | 1014.8 hPa | 0 mm | - | 429 W/m² | - |
| 1777902304 | 25.56° C | 32% | 1014.8 hPa | 0 mm | - | 413 W/m² | - |
| 1777902003 | 25.56° C | 31% | 1015 hPa | 0 mm | - | 448 W/m² | - |
| 1777901705 | 25.56° C | 31% | 1015 hPa | 0 mm | - | 452 W/m² | - |
| 1777901406 | 25.56° C | 32% | 1015 hPa | 0 mm | - | 445 W/m² | - |
| 1777901103 | 25.56° C | 31% | 1014.9 hPa | 0 mm | - | 467 W/m² | - |
| 1777900804 | 25.56° C | 32% | 1014.9 hPa | 0 mm | - | 403 W/m² | - |
| 1777900503 | 25° C | 33% | 1015.1 hPa | 0 mm | - | 307 W/m² | - |
| 1777900204 | 24.44° C | 33% | 1015.2 hPa | 0 mm | - | 318 W/m² | - |
| 1777899903 | 25° C | 33% | 1015.2 hPa | 0 mm | - | 313 W/m² | - |
| 1777899603 | 25° C | 32% | 1015.3 hPa | 0 mm | - | 366 W/m² | - |
| 1777899303 | 25.56° C | 31% | 1015.3 hPa | 0 mm | - | 373 W/m² | - |
| 1777899004 | 26.11° C | 32% | 1015.1 hPa | 0 mm | - | 526 W/m² | - |
| 1777898705 | 25.56° C | 31% | 1015.3 hPa | 0 mm | - | 589 W/m² | - |
| 1777898403 | 25.56° C | 31% | 1015.3 hPa | 0 mm | - | 590 W/m² | - |
| 1777898103 | 26.11° C | 29% | 1015.2 hPa | 0 mm | - | 607 W/m² | - |
| 1777897804 | 26.11° C | 30% | 1015.4 hPa | 0 mm | - | 552 W/m² | - |
| 1777897505 | 26.11° C | 30% | 1015.4 hPa | 0 mm | - | 568 W/m² | - |
| 1777897204 | 26.11° C | 29% | 1015.6 hPa | 0 mm | - | 618 W/m² | - |
| 1777896903 | 25.56° C | 32% | 1015.3 hPa | 0 mm | - | 626 W/m² | - |
| 1777896602 | 26.11° C | 31% | 1015.5 hPa | 0 mm | - | 636 W/m² | - |
| 1777896303 | 26.11° C | 33% | 1015.3 hPa | 0 mm | - | 633 W/m² | - |
| 1777896002 | 26.11° C | 31% | 1015.6 hPa | 0 mm | - | 604 W/m² | - |
| 1777895702 | 26.67° C | 31% | 1015.6 hPa | 0 mm | - | 624 W/m² | - |
* Rain latest hour (hover to see other rain measurements)
** Current wind speed in m/s (hover to see current wind gust speed)